Language: 


Des rapports , des résumés tant et plus, au choix de chacun....


Données statistiques de la station
Quotidien Rapport Février 25, 2017 Unités:  Métrique    Anglais   les deux
« Précédent Jour
Suivant Jour »
Quotidien Hebdomadaire Mensuel Annuel Actuel
  Haut: Bas: Moyen:
Température: 10.9 °C 0.0 °C 5.8 °C
Pt de rosée: 5.4 °C -0.5 °C 2.9 °C
Humidité: 98 % 0 % 83 %
Vitesse du vent: 27.7 km/h 0.0 km/h 9.6 km/h
Rafales: 37.0 km/h - -
Vent:- - SSW
Pression: 1020.9 hPa 1012.1 hPa -
Précipitation: 0.0 mm    
Historical Graphs
 
 
Données statistiques pour Février 25, 2017
Heure Température Point de rosée Pression Vent Vitesse du vent Refales Humidité Pluie (taux horaire)
00:02 0.2 °C -0.5 °C 1020.9 hPa Calm   5.5 km/h 95 % 0.0 mm
00:07 0.3 °C -0.4 °C 1019.9 hPa Calm   5.5 km/h 95 % 0.0 mm
00:12 0.4 °C -0.3 °C 1019.9 hPa SSW 1.4 km/h 5.5 km/h 95 % 0.0 mm
00:17 0.6 °C -0.1 °C 1019.9 hPa SSW 5.5 km/h 7.2 km/h 95 % 0.0 mm
00:22 0.7 °C 0.1 °C 1019.9 hPa SSW 3.2 km/h 7.2 km/h 96 % 0.0 mm
00:27 0.8 °C 0.2 °C 1019.9 hPa South 1.4 km/h 6.9 km/h 96 % 0.0 mm
00:32 0.9 °C 0.3 °C 1019.9 hPa SSW 5.5 km/h 6.9 km/h 96 % 0.0 mm
00:37 1.1 °C 0.5 °C 1019.9 hPa Calm   6.4 km/h 96 % 0.0 mm
00:42 1.2 °C 0.6 °C 1019.9 hPa South 5.5 km/h 6.9 km/h 96 % 0.0 mm
00:47 1.3 °C 0.7 °C 1019.9 hPa South 4.3 km/h 6.9 km/h 96 % 0.0 mm
00:52 1.4 °C 0.8 °C 1020.9 hPa SSW 4.3 km/h 7.9 km/h 96 % 0.0 mm
00:57 1.4 °C 0.9 °C 1020.9 hPa South 5.8 km/h 7.9 km/h 96 % 0.0 mm
01:02 1.6 °C 1.0 °C 1020.9 hPa SSW 5.0 km/h 6.9 km/h 96 % 0.0 mm
01:07 1.7 °C 1.1 °C 1020.9 hPa SSW 4.7 km/h 7.9 km/h 96 % 0.0 mm
01:12 1.7 °C 1.1 °C 1020.9 hPa SW 3.2 km/h 7.9 km/h 96 % 0.0 mm
01:17 1.7 °C 1.1 °C 1020.9 hPa Calm   6.9 km/h 96 % 0.0 mm
01:22 1.7 °C 1.1 °C 1019.9 hPa SSW 4.3 km/h 6.9 km/h 96 % 0.0 mm
01:23 1.7 °C 1.1 °C 1019.9 hPa SSW 6.1 km/h 6.9 km/h 96 % 0.0 mm
01:28 1.6 °C 0.8 °C 1019.9 hPa SW 4.0 km/h 6.9 km/h 95 % 0.0 mm
01:33 1.6 °C 0.8 °C 1019.9 hPa SW 1.8 km/h 6.1 km/h 95 % 0.0 mm
01:38 1.6 °C 0.8 °C 1020.9 hPa West 1.4 km/h 6.1 km/h 95 % 0.0 mm
01:43 1.6 °C 0.8 °C 1020.9 hPa South 3.2 km/h 6.1 km/h 95 % 0.0 mm
01:48 1.4 °C 0.8 °C 1020.9 hPa Calm   6.1 km/h 95 % 0.0 mm
01:53 1.4 °C 0.7 °C 1020.9 hPa Calm   4.3 km/h 95 % 0.0 mm
01:58 1.3 °C 0.6 °C 1020.9 hPa WSW 3.2 km/h 4.3 km/h 95 % 0.0 mm
02:03 1.2 °C 0.4 °C 1020.9 hPa Calm   4.3 km/h 95 % 0.0 mm
02:08 1.1 °C 0.4 °C 1019.9 hPa Calm   3.2 km/h 95 % 0.0 mm
02:13 1.0 °C 0.3 °C 1019.9 hPa SW 3.5 km/h 3.5 km/h 95 % 0.0 mm
02:18 0.9 °C 0.2 °C 1019.9 hPa SSW 4.0 km/h 5.5 km/h 95 % 0.0 mm
02:23 0.9 °C 0.2 °C 1019.9 hPa WSW 4.0 km/h 5.5 km/h 95 % 0.0 mm
02:28 0.9 °C 0.2 °C 1019.9 hPa WSW 5.0 km/h 5.5 km/h 95 % 0.0 mm
02:33 1.1 °C 0.4 °C 1019.9 hPa WSW 4.0 km/h 6.9 km/h 95 % 0.0 mm
02:38 1.0 °C 0.4 °C 1019.9 hPa WSW 4.3 km/h 6.9 km/h 96 % 0.0 mm
02:43 1.0 °C 0.4 °C 1019.9 hPa Calm   5.0 km/h 96 % 0.0 mm
02:48 0.9 °C 0.3 °C 1019.9 hPa South 4.0 km/h 5.0 km/h 96 % 0.0 mm
02:53 0.9 °C 0.3 °C 1019.9 hPa SSW 4.3 km/h 5.5 km/h 96 % 0.0 mm
02:58 0.9 °C 0.3 °C 1019.9 hPa Calm   5.5 km/h 96 % 0.0 mm
03:03 0.8 °C 0.2 °C 1019.9 hPa Calm   4.7 km/h 96 % 0.0 mm
03:08 0.0 °C 0.2 °C 1018.8 hPa SW 2.1 km/h 3.5 km/h 0 % 0.0 mm
03:13 0.8 °C 0.2 °C 1018.8 hPa SSW 4.0 km/h 5.5 km/h 96 % 0.0 mm
03:18 0.8 °C 0.2 °C 1018.8 hPa SSW 3.5 km/h 5.5 km/h 96 % 0.0 mm
03:23 0.8 °C 0.4 °C 1018.8 hPa SSW 4.3 km/h 5.0 km/h 97 % 0.0 mm
03:28 0.9 °C 0.4 °C 1018.8 hPa SSW 3.2 km/h 4.7 km/h 97 % 0.0 mm
03:33 0.9 °C 0.4 °C 1018.8 hPa SSW 4.0 km/h 5.8 km/h 97 % 0.0 mm
03:38 0.9 °C 0.4 °C 1018.8 hPa South 4.0 km/h 5.8 km/h 97 % 0.0 mm
03:43 1.0 °C 0.6 °C 1018.8 hPa South 4.7 km/h 5.8 km/h 97 % 0.0 mm
03:48 1.1 °C 0.7 °C 1018.8 hPa SSW 3.2 km/h 6.1 km/h 97 % 0.0 mm
03:53 1.2 °C 0.8 °C 1018.8 hPa SW 4.7 km/h 6.4 km/h 97 % 0.0 mm
03:58 1.3 °C 0.8 °C 1018.8 hPa SW 4.3 km/h 6.4 km/h 97 % 0.0 mm
04:03 1.3 °C 0.8 °C 1018.8 hPa SSW 3.5 km/h 5.8 km/h 97 % 0.0 mm
04:08 1.3 °C 0.8 °C 1018.2 hPa SSW 2.6 km/h 6.1 km/h 97 % 0.0 mm
04:13 1.3 °C 0.8 °C 1018.2 hPa WSW 5.5 km/h 6.1 km/h 97 % 0.0 mm
04:18 1.4 °C 0.9 °C 1018.2 hPa SW 3.5 km/h 6.4 km/h 97 % 0.0 mm
04:23 1.4 °C 0.9 °C 1018.2 hPa SSW 3.2 km/h 7.9 km/h 97 % 0.0 mm
04:28 1.4 °C 1.1 °C 1018.2 hPa SW 4.7 km/h 8.7 km/h 97 % 0.0 mm
04:29 1.4 °C 1.1 °C 1018.2 hPa WSW 4.7 km/h 8.7 km/h 97 % 0.0 mm
04:34 1.4 °C 1.1 °C 1018.2 hPa SSW 4.0 km/h 8.7 km/h 97 % 0.0 mm
04:39 1.6 °C 1.2 °C 1018.8 hPa WSW 3.2 km/h 6.4 km/h 97 % 0.0 mm
04:44 1.4 °C 1.1 °C 1018.8 hPa SW 4.3 km/h 5.5 km/h 97 % 0.0 mm
04:49 1.4 °C 0.9 °C 1018.8 hPa SSW 6.1 km/h 6.4 km/h 97 % 0.0 mm
04:54 1.4 °C 1.1 °C 1018.8 hPa SW 5.5 km/h 6.4 km/h 97 % 0.0 mm
04:59 1.6 °C 1.2 °C 1018.8 hPa South 4.0 km/h 10.1 km/h 97 % 0.0 mm
05:04 1.7 °C 1.4 °C 1018.8 hPa SSW 5.8 km/h 10.1 km/h 98 % 0.0 mm
05:09 1.8 °C 1.5 °C 1018.8 hPa South 7.6 km/h 10.5 km/h 98 % 0.0 mm
05:14 1.9 °C 1.6 °C 1018.8 hPa South 7.6 km/h 10.5 km/h 98 % 0.0 mm
05:19 1.9 °C 1.6 °C 1018.8 hPa South 6.1 km/h 9.7 km/h 98 % 0.0 mm
05:24 1.9 °C 1.6 °C 1018.8 hPa South 9.0 km/h 11.6 km/h 98 % 0.0 mm
05:29 1.9 °C 1.6 °C 1018.8 hPa South 6.9 km/h 11.6 km/h 98 % 0.0 mm
05:34 1.9 °C 1.6 °C 1018.8 hPa South 7.2 km/h 12.6 km/h 97 % 0.0 mm
05:39 1.9 °C 1.6 °C 1018.8 hPa South 9.3 km/h 12.6 km/h 97 % 0.0 mm
05:44 2.1 °C 1.6 °C 1018.8 hPa South 6.4 km/h 9.7 km/h 97 % 0.0 mm
05:49 2.1 °C 1.6 °C 1018.8 hPa South 5.8 km/h 10.5 km/h 97 % 0.0 mm
05:54 2.1 °C 1.6 °C 1018.8 hPa SSW 9.7 km/h 10.5 km/h 97 % 0.0 mm
05:59 2.1 °C 1.6 °C 1018.8 hPa SSW 4.3 km/h 9.7 km/h 97 % 0.0 mm
06:04 2.2 °C 1.7 °C 1018.8 hPa SSW 8.7 km/h 10.5 km/h 97 % 0.0 mm
06:09 2.3 °C 1.8 °C 1018.8 hPa South 6.1 km/h 12.6 km/h 97 % 0.0 mm
06:14 2.3 °C 1.8 °C 1018.8 hPa SW 6.9 km/h 12.6 km/h 97 % 0.0 mm
06:19 2.3 °C 1.8 °C 1018.8 hPa SSW 6.4 km/h 10.1 km/h 97 % 0.0 mm
06:24 2.3 °C 1.8 °C 1018.8 hPa SSW 6.1 km/h 9.3 km/h 97 % 0.0 mm
06:29 2.3 °C 1.8 °C 1018.8 hPa SSW 7.6 km/h 12.2 km/h 97 % 0.0 mm
06:34 2.3 °C 1.8 °C 1018.8 hPa SSW 5.5 km/h 12.2 km/h 97 % 0.0 mm
06:39 2.3 °C 1.9 °C 1018.8 hPa SW 8.7 km/h 15.4 km/h 97 % 0.0 mm
06:44 2.3 °C 1.9 °C 1018.8 hPa South 10.5 km/h 15.4 km/h 97 % 0.0 mm
06:49 2.3 °C 1.8 °C 1018.8 hPa SSW 6.4 km/h 13.0 km/h 96 % 0.0 mm
06:54 2.3 °C 1.7 °C 1018.8 hPa SW 6.9 km/h 12.6 km/h 96 % 0.0 mm
06:59 2.3 °C 1.7 °C 1018.8 hPa SSW 9.3 km/h 12.6 km/h 96 % 0.0 mm
07:04 2.3 °C 1.7 °C 1018.8 hPa SSW 5.8 km/h 11.6 km/h 96 % 0.0 mm
07:09 2.3 °C 1.7 °C 1018.8 hPa SSW 10.1 km/h 11.6 km/h 96 % 0.0 mm
07:14 2.3 °C 1.7 °C 1018.8 hPa SW 5.0 km/h 10.1 km/h 96 % 0.0 mm
07:19 2.3 °C 1.8 °C 1018.8 hPa SSW 4.7 km/h 10.5 km/h 96 % 0.0 mm
07:24 2.3 °C 1.8 °C 1018.2 hPa SSW 6.4 km/h 10.5 km/h 96 % 0.0 mm
07:29 2.3 °C 1.6 °C 1018.2 hPa SSW 6.4 km/h 10.5 km/h 95 % 0.0 mm
07:34 2.3 °C 1.6 °C 1018.2 hPa SSW 9.7 km/h 10.5 km/h 95 % 0.0 mm
07:39 2.3 °C 1.6 °C 1018.8 hPa South 6.1 km/h 10.1 km/h 95 % 0.0 mm
07:44 2.3 °C 1.6 °C 1018.8 hPa SSW 9.3 km/h 11.1 km/h 95 % 0.0 mm
07:49 2.4 °C 1.7 °C 1018.8 hPa South 13.0 km/h 13.0 km/h 95 % 0.0 mm
07:54 2.4 °C 1.7 °C 1018.8 hPa South 7.6 km/h 16.3 km/h 95 % 0.0 mm
07:59 2.6 °C 1.7 °C 1018.8 hPa SSW 9.0 km/h 16.6 km/h 94 % 0.0 mm
08:04 2.6 °C 1.7 °C 1018.8 hPa South 6.4 km/h 16.6 km/h 94 % 0.0 mm
08:09 2.7 °C 1.6 °C 1018.2 hPa South 9.7 km/h 14.3 km/h 93 % 0.0 mm
08:14 2.7 °C 1.6 °C 1018.2 hPa SSW 9.7 km/h 14.3 km/h 93 % 0.0 mm
08:19 2.7 °C 1.5 °C 1018.2 hPa South 9.0 km/h 14.0 km/h 92 % 0.0 mm
08:24 2.7 °C 1.5 °C 1018.8 hPa SSW 11.9 km/h 11.9 km/h 92 % 0.0 mm
08:29 2.7 °C 1.6 °C 1018.8 hPa South 6.1 km/h 12.6 km/h 92 % 0.0 mm
08:34 2.8 °C 1.7 °C 1018.8 hPa South 10.8 km/h 12.6 km/h 92 % 0.0 mm
08:39 2.9 °C 1.8 °C 1018.8 hPa SSW 7.9 km/h 13.0 km/h 92 % 0.0 mm
08:44 3.1 °C 1.8 °C 1018.8 hPa SSW 11.6 km/h 16.6 km/h 91 % 0.0 mm
08:49 3.2 °C 1.9 °C 1018.8 hPa SSW 20.1 km/h 20.1 km/h 91 % 0.0 mm
08:54 3.6 °C 2.3 °C 1018.8 hPa SSW 16.3 km/h 20.1 km/h 91 % 0.0 mm
08:59 3.6 °C 2.1 °C 1018.8 hPa SSW 14.0 km/h 20.1 km/h 90 % 0.0 mm
09:04 3.6 °C 1.9 °C 1018.8 hPa WSW 8.7 km/h 20.1 km/h 89 % 0.0 mm
09:09 3.6 °C 1.7 °C 1018.8 hPa SSW 10.5 km/h 19.8 km/h 88 % 0.0 mm
09:14 3.6 °C 1.8 °C 1018.8 hPa SSW 9.3 km/h 16.3 km/h 88 % 0.0 mm
09:19 3.7 °C 1.9 °C 1018.8 hPa SSW 8.7 km/h 15.8 km/h 88 % 0.0 mm
09:24 3.7 °C 1.9 °C 1018.8 hPa SSW 12.2 km/h 14.0 km/h 88 % 0.0 mm
09:29 3.8 °C 2.0 °C 1018.8 hPa South 9.7 km/h 16.9 km/h 88 % 0.0 mm
09:34 3.9 °C 1.9 °C 1018.8 hPa WSW 16.9 km/h 18.3 km/h 87 % 0.0 mm
09:39 3.9 °C 1.9 °C 1018.8 hPa South 13.0 km/h 19.5 km/h 87 % 0.0 mm
09:44 4.1 °C 2.2 °C 1018.8 hPa SSW 9.3 km/h 19.5 km/h 87 % 0.0 mm
09:49 4.2 °C 2.2 °C 1018.8 hPa South 10.1 km/h 16.6 km/h 87 % 0.0 mm
09:54 4.2 °C 2.2 °C 1018.8 hPa SSW 13.0 km/h 16.6 km/h 87 % 0.0 mm
09:59 4.2 °C 2.2 °C 1018.8 hPa SSW 9.0 km/h 16.6 km/h 87 % 0.0 mm
10:04 4.7 °C 2.6 °C 1018.8 hPa South 8.7 km/h 16.3 km/h 86 % 0.0 mm
10:09 4.8 °C 2.7 °C 1018.8 hPa SSW 12.6 km/h 17.2 km/h 86 % 0.0 mm
10:14 5.1 °C 2.8 °C 1018.8 hPa SSW 7.6 km/h 17.2 km/h 85 % 0.0 mm
10:19 5.3 °C 3.0 °C 1018.8 hPa SSW 11.9 km/h 17.7 km/h 85 % 0.0 mm
10:24 5.5 °C 3.2 °C 1018.8 hPa SSW 13.7 km/h 19.8 km/h 85 % 0.0 mm
10:29 5.6 °C 3.1 °C 1018.8 hPa SW 13.7 km/h 19.8 km/h 84 % 0.0 mm
10:34 5.8 °C 3.1 °C 1018.8 hPa South 9.7 km/h 19.5 km/h 83 % 0.0 mm
10:39 5.9 °C 3.2 °C 1018.8 hPa SSW 10.5 km/h 16.6 km/h 83 % 0.0 mm
10:44 6.1 °C 3.1 °C 1018.8 hPa SW 9.3 km/h 17.7 km/h 81 % 0.0 mm
10:49 6.3 °C 3.3 °C 1018.8 hPa SSW 9.7 km/h 17.7 km/h 81 % 0.0 mm
10:54 6.4 °C 3.3 °C 1018.2 hPa SSW 13.7 km/h 17.7 km/h 81 % 0.0 mm
10:59 6.4 °C 3.1 °C 1018.2 hPa SSW 15.8 km/h 20.6 km/h 79 % 0.0 mm
11:04 6.6 °C 2.6 °C 1018.2 hPa SSW 13.0 km/h 24.5 km/h 76 % 0.0 mm
11:09 6.6 °C 2.6 °C 1018.8 hPa SSW 13.7 km/h 24.5 km/h 76 % 0.0 mm
11:14 6.7 °C 2.6 °C 1018.8 hPa SSW 20.6 km/h 28.5 km/h 75 % 0.0 mm
11:19 6.7 °C 2.6 °C 1018.8 hPa SSW 14.0 km/h 28.5 km/h 75 % 0.0 mm
11:24 6.7 °C 2.6 °C 1018.8 hPa SSW 16.3 km/h 23.8 km/h 75 % 0.0 mm
11:29 6.8 °C 2.6 °C 1018.8 hPa SW 20.1 km/h 23.8 km/h 74 % 0.0 mm
11:34 6.9 °C 2.6 °C 1018.8 hPa SSW 13.7 km/h 23.8 km/h 74 % 0.0 mm
11:39 7.1 °C 2.7 °C 1018.2 hPa SW 13.7 km/h 20.1 km/h 74 % 0.0 mm
11:44 7.3 °C 2.7 °C 1018.2 hPa SW 12.2 km/h 20.1 km/h 73 % 0.0 mm
11:49 7.4 °C 2.9 °C 1018.2 hPa SSW 16.3 km/h 19.5 km/h 73 % 0.0 mm
11:54 7.6 °C 2.8 °C 1018.2 hPa SW 16.6 km/h 19.5 km/h 72 % 0.0 mm
11:59 7.6 °C 2.8 °C 1018.2 hPa SSW 13.0 km/h 16.6 km/h 72 % 0.0 mm
12:04 7.6 °C 2.8 °C 1018.2 hPa SSW 21.2 km/h 21.2 km/h 72 % 0.0 mm
12:09 7.7 °C 2.7 °C 1018.2 hPa SSW 14.0 km/h 21.2 km/h 71 % 0.0 mm
12:14 7.7 °C 3.0 °C 1018.2 hPa South 9.7 km/h 19.1 km/h 72 % 0.0 mm
12:19 8.1 °C 3.1 °C 1018.2 hPa South 9.0 km/h 23.8 km/h 71 % 0.0 mm
12:24 8.1 °C 2.9 °C 1018.2 hPa SW 10.5 km/h 23.8 km/h 70 % 0.0 mm
12:29 8.3 °C 3.4 °C 1018.2 hPa SSW 12.2 km/h 23.3 km/h 71 % 0.0 mm
12:34 8.5 °C 3.6 °C 1018.2 hPa South 15.4 km/h 25.3 km/h 71 % 0.0 mm
12:39 8.7 °C 3.8 °C 1016.8 hPa SSW 16.9 km/h 25.3 km/h 71 % 0.0 mm
12:44 8.7 °C 3.3 °C 1016.8 hPa South 19.5 km/h 19.8 km/h 69 % 0.0 mm
12:49 9.0 °C 3.6 °C 1016.8 hPa SSW 13.0 km/h 24.5 km/h 69 % 0.0 mm
12:54 9.1 °C 3.5 °C 1016.8 hPa SSW 8.7 km/h 24.5 km/h 68 % 0.0 mm
12:59 9.5 °C 4.1 °C 1016.8 hPa SSW 15.8 km/h 24.8 km/h 69 % 0.0 mm
13:04 9.7 °C 4.3 °C 1016.8 hPa SW 23.3 km/h 24.8 km/h 69 % 0.0 mm
13:09 10.0 °C 4.6 °C 1016.8 hPa WSW 14.0 km/h 25.9 km/h 69 % 0.0 mm
13:14 10.0 °C 3.9 °C 1016.8 hPa SSW 20.9 km/h 28.0 km/h 66 % 0.0 mm
13:19 10.1 °C 4.0 °C 1016.8 hPa WSW 20.6 km/h 28.0 km/h 66 % 0.0 mm
13:24 10.2 °C 4.3 °C 1016.1 hPa SSW 16.9 km/h 23.8 km/h 67 % 0.0 mm
13:29 10.3 °C 4.4 °C 1016.1 hPa SSW 15.8 km/h 23.8 km/h 67 % 0.0 mm
13:34 10.1 °C 3.6 °C 1016.1 hPa SSW 27.7 km/h 28.8 km/h 64 % 0.0 mm
13:39 10.1 °C 3.8 °C 1016.8 hPa South 16.3 km/h 31.7 km/h 65 % 0.0 mm
13:44 10.2 °C 4.1 °C 1016.8 hPa SW 17.2 km/h 31.7 km/h 66 % 0.0 mm
13:49 10.4 °C 4.3 °C 1016.8 hPa WSW 19.8 km/h 27.4 km/h 66 % 0.0 mm
13:54 10.5 °C 3.9 °C 1016.8 hPa SW 16.3 km/h 28.0 km/h 64 % 0.0 mm
13:59 10.8 °C 4.2 °C 1016.8 hPa WSW 13.7 km/h 28.5 km/h 64 % 0.0 mm
14:04 10.7 °C 3.9 °C 1016.8 hPa SSW 20.6 km/h 30.2 km/h 63 % 0.0 mm
14:09 10.9 °C 4.3 °C 1016.1 hPa SW 20.9 km/h 30.2 km/h 64 % 0.0 mm
14:14 10.8 °C 4.2 °C 1016.1 hPa SSW 13.7 km/h 30.2 km/h 64 % 0.0 mm
14:19 10.7 °C 4.2 °C 1016.1 hPa WSW 19.5 km/h 30.2 km/h 64 % 0.0 mm
14:24 10.6 °C 4.1 °C 1016.1 hPa SSW 14.0 km/h 27.0 km/h 64 % 0.0 mm
14:29 10.9 °C 4.8 °C 1016.1 hPa SSW 24.5 km/h 27.0 km/h 66 % 0.0 mm
14:34 10.9 °C 4.8 °C 1016.1 hPa WSW 16.6 km/h 24.5 km/h 66 % 0.0 mm
14:39 10.8 °C 4.4 °C 1015.1 hPa WSW 25.9 km/h 27.0 km/h 65 % 0.0 mm
14:44 10.6 °C 3.6 °C 1015.1 hPa WSW 19.8 km/h 28.0 km/h 62 % 0.0 mm
14:49 10.7 °C 3.7 °C 1015.1 hPa SW 20.6 km/h 37.0 km/h 62 % 0.0 mm
14:54 10.6 °C 4.1 °C 1016.1 hPa SW 15.8 km/h 37.0 km/h 64 % 0.0 mm
14:59 10.6 °C 4.1 °C 1016.1 hPa SW 24.8 km/h 28.0 km/h 64 % 0.0 mm
15:04 10.6 °C 4.5 °C 1016.1 hPa WSW 23.8 km/h 35.2 km/h 66 % 0.0 mm
15:09 10.5 °C 4.2 °C 1016.1 hPa WSW 20.6 km/h 35.2 km/h 65 % 0.0 mm
15:14 10.5 °C 4.4 °C 1016.1 hPa WSW 17.7 km/h 27.4 km/h 66 % 0.0 mm
15:19 10.3 °C 3.6 °C 1016.1 hPa SW 20.9 km/h 31.4 km/h 63 % 0.0 mm
15:24 10.3 °C 3.8 °C 1015.1 hPa WSW 16.9 km/h 31.4 km/h 64 % 0.0 mm
15:29 10.2 °C 3.9 °C 1015.1 hPa WSW 24.8 km/h 28.5 km/h 65 % 0.0 mm
15:34 10.2 °C 4.1 °C 1015.1 hPa WSW 21.6 km/h 28.5 km/h 66 % 0.0 mm
15:39 10.1 °C 4.2 °C 1015.1 hPa SW 13.7 km/h 24.5 km/h 67 % 0.0 mm
15:44 10.1 °C 4.0 °C 1015.1 hPa WSW 20.6 km/h 25.3 km/h 66 % 0.0 mm
15:49 10.1 °C 4.2 °C 1015.1 hPa WSW 16.3 km/h 25.3 km/h 67 % 0.0 mm
15:54 10.1 °C 4.2 °C 1015.1 hPa SW 20.1 km/h 22.7 km/h 67 % 0.0 mm
15:59 10.0 °C 4.2 °C 1015.1 hPa SSW 13.0 km/h 22.7 km/h 67 % 0.0 mm
16:04 10.0 °C 4.3 °C 1015.1 hPa SW 14.0 km/h 21.2 km/h 68 % 0.0 mm
16:09 10.0 °C 4.3 °C 1015.1 hPa SW 20.1 km/h 22.4 km/h 68 % 0.0 mm
16:14 10.0 °C 4.2 °C 1015.1 hPa WSW 12.2 km/h 23.8 km/h 67 % 0.0 mm
16:19 9.9 °C 4.3 °C 1015.1 hPa SSW 20.1 km/h 24.5 km/h 68 % 0.0 mm
16:24 9.9 °C 4.1 °C 1015.1 hPa WSW 13.7 km/h 24.5 km/h 67 % 0.0 mm
16:29 9.9 °C 4.3 °C 1015.1 hPa WSW 15.8 km/h 23.8 km/h 68 % 0.0 mm
16:34 9.9 °C 4.3 °C 1015.1 hPa SW 9.3 km/h 21.2 km/h 68 % 0.0 mm
16:39 9.9 °C 4.3 °C 1015.1 hPa SW 20.6 km/h 20.6 km/h 68 % 0.0 mm
16:44 9.8 °C 3.9 °C 1015.1 hPa SW 16.6 km/h 25.3 km/h 67 % 0.0 mm
16:49 9.8 °C 4.2 °C 1015.1 hPa SSW 16.9 km/h 25.3 km/h 68 % 0.0 mm
16:54 9.7 °C 4.1 °C 1015.1 hPa WSW 12.2 km/h 20.9 km/h 68 % 0.0 mm
16:59 9.7 °C 4.3 °C 1015.1 hPa WSW 12.6 km/h 21.9 km/h 69 % 0.0 mm
17:04 9.6 °C 4.2 °C 1015.1 hPa SW 16.3 km/h 21.9 km/h 69 % 0.0 mm
17:09 9.5 °C 4.1 °C 1015.1 hPa SW 13.0 km/h 19.1 km/h 69 % 0.0 mm
17:14 9.5 °C 4.1 °C 1015.1 hPa SW 12.2 km/h 19.8 km/h 69 % 0.0 mm
17:19 9.5 °C 4.1 °C 1015.1 hPa SW 11.9 km/h 19.8 km/h 69 % 0.0 mm
17:24 9.4 °C 4.2 °C 1015.1 hPa SW 15.8 km/h 17.7 km/h 70 % 0.0 mm
17:29 9.4 °C 4.2 °C 1015.1 hPa SW 9.0 km/h 16.9 km/h 70 % 0.0 mm
17:34 9.4 °C 4.2 °C 1015.1 hPa SSW 9.0 km/h 16.3 km/h 70 % 0.0 mm
17:39 9.4 °C 4.2 °C 1015.1 hPa SSW 13.7 km/h 18.3 km/h 70 % 0.0 mm
17:44 9.4 °C 4.2 °C 1015.1 hPa WSW 13.7 km/h 19.1 km/h 70 % 0.0 mm
17:49 9.3 °C 4.1 °C 1015.1 hPa SW 9.0 km/h 19.1 km/h 70 % 0.0 mm
17:54 9.3 °C 4.3 °C 1015.1 hPa SSW 9.7 km/h 13.7 km/h 71 % 0.0 mm
17:59 9.2 °C 4.2 °C 1015.1 hPa WSW 9.7 km/h 12.6 km/h 71 % 0.0 mm
18:04 9.1 °C 4.1 °C 1015.1 hPa SW 6.9 km/h 12.6 km/h 71 % 0.0 mm
18:05 9.1 °C 4.1 °C 1015.1 hPa WSW 9.3 km/h 12.6 km/h 71 % 0.0 mm
18:10 9.1 °C 4.3 °C 1015.1 hPa WSW 10.1 km/h 10.5 km/h 72 % 0.0 mm
18:15 8.9 °C 4.2 °C 1015.1 hPa WSW 6.9 km/h 12.6 km/h 72 % 0.0 mm
18:20 8.8 °C 4.2 °C 1015.1 hPa West 7.9 km/h 12.6 km/h 73 % 0.0 mm
18:25 8.6 °C 4.2 °C 1016.1 hPa WSW 5.8 km/h 11.9 km/h 74 % 0.0 mm
18:30 8.4 °C 4.1 °C 1016.1 hPa WSW 4.7 km/h 9.0 km/h 74 % 0.0 mm
18:35 8.2 °C 4.1 °C 1016.1 hPa SW 6.1 km/h 6.9 km/h 75 % 0.0 mm
18:40 8.1 °C 3.9 °C 1015.1 hPa SW 5.0 km/h 7.6 km/h 75 % 0.0 mm
18:45 7.9 °C 3.9 °C 1015.1 hPa SW 4.3 km/h 7.6 km/h 76 % 0.0 mm
18:50 7.8 °C 3.9 °C 1015.1 hPa SW 4.3 km/h 6.4 km/h 76 % 0.0 mm
18:55 7.7 °C 3.9 °C 1015.1 hPa SW 5.8 km/h 5.8 km/h 77 % 0.0 mm
19:00 7.8 °C 4.2 °C 1015.1 hPa WSW 4.0 km/h 6.4 km/h 78 % 0.0 mm
19:05 7.8 °C 4.2 °C 1015.1 hPa WSW 4.7 km/h 6.4 km/h 78 % 0.0 mm
19:10 7.7 °C 4.3 °C 1016.1 hPa WSW 5.5 km/h 5.8 km/h 79 % 0.0 mm
19:15 7.7 °C 4.5 °C 1016.1 hPa WSW 4.7 km/h 6.4 km/h 80 % 0.0 mm
19:20 7.7 °C 4.4 °C 1016.1 hPa SW 4.3 km/h 6.4 km/h 80 % 0.0 mm
19:25 7.7 °C 4.6 °C 1015.1 hPa SSW 5.0 km/h 6.4 km/h 81 % 0.0 mm
19:30 7.7 °C 4.7 °C 1015.1 hPa SSW 7.9 km/h 7.9 km/h 81 % 0.0 mm
19:35 7.7 °C 4.7 °C 1015.1 hPa SSW 4.0 km/h 7.9 km/h 81 % 0.0 mm
19:40 7.7 °C 4.7 °C 1015.1 hPa SSW 1.4 km/h 5.8 km/h 81 % 0.0 mm
19:45 7.7 °C 4.7 °C 1015.1 hPa WSW 4.3 km/h 5.8 km/h 81 % 0.0 mm
19:50 7.8 °C 4.8 °C 1015.1 hPa SW 5.5 km/h 7.9 km/h 81 % 0.0 mm
19:55 7.8 °C 4.8 °C 1015.1 hPa SSW 4.0 km/h 7.9 km/h 81 % 0.0 mm
20:00 7.8 °C 4.9 °C 1015.1 hPa SSW 6.4 km/h 11.9 km/h 82 % 0.0 mm
20:05 7.9 °C 5.1 °C 1015.1 hPa SSW 4.7 km/h 11.9 km/h 82 % 0.0 mm
20:10 7.9 °C 5.1 °C 1015.1 hPa SW 6.9 km/h 9.7 km/h 82 % 0.0 mm
20:15 8.1 °C 5.2 °C 1015.1 hPa SSW 6.1 km/h 11.9 km/h 82 % 0.0 mm
20:20 8.1 °C 5.2 °C 1015.1 hPa SW 6.1 km/h 11.9 km/h 82 % 0.0 mm
20:25 8.1 °C 5.2 °C 1015.1 hPa SSW 5.0 km/h 9.7 km/h 82 % 0.0 mm
20:30 8.2 °C 5.3 °C 1015.1 hPa WSW 11.6 km/h 12.6 km/h 82 % 0.0 mm
20:35 8.2 °C 5.3 °C 1015.1 hPa SSW 9.3 km/h 12.6 km/h 82 % 0.0 mm
20:40 8.3 °C 5.4 °C 1015.1 hPa WSW 7.2 km/h 12.6 km/h 82 % 0.0 mm
20:45 8.3 °C 5.3 °C 1015.1 hPa SW 6.9 km/h 12.6 km/h 81 % 0.0 mm
20:50 8.3 °C 5.3 °C 1015.1 hPa SSW 9.3 km/h 11.9 km/h 81 % 0.0 mm
20:55 8.3 °C 5.3 °C 1014.1 hPa WSW 11.9 km/h 14.0 km/h 81 % 0.0 mm
21:00 8.3 °C 5.3 °C 1014.1 hPa SW 7.9 km/h 15.8 km/h 81 % 0.0 mm
21:05 8.2 °C 5.2 °C 1014.1 hPa WSW 11.6 km/h 15.8 km/h 81 % 0.0 mm
21:10 8.2 °C 5.2 °C 1014.1 hPa SW 9.7 km/h 14.3 km/h 81 % 0.0 mm
21:15 8.2 °C 5.2 °C 1014.1 hPa SW 4.0 km/h 14.0 km/h 81 % 0.0 mm
21:20 8.1 °C 5.1 °C 1014.1 hPa South 4.3 km/h 10.1 km/h 81 % 0.0 mm
21:25 8.1 °C 4.9 °C 1014.1 hPa South 6.9 km/h 8.7 km/h 81 % 0.0 mm
21:30 7.9 °C 4.9 °C 1014.1 hPa SSW 4.0 km/h 11.9 km/h 81 % 0.0 mm
21:35 7.9 °C 4.9 °C 1014.1 hPa South 7.6 km/h 11.9 km/h 81 % 0.0 mm
21:40 7.9 °C 5.1 °C 1014.1 hPa SSW 5.8 km/h 10.5 km/h 82 % 0.0 mm
21:45 7.9 °C 5.1 °C 1014.1 hPa SSW 6.4 km/h 9.7 km/h 82 % 0.0 mm
21:50 7.9 °C 5.1 °C 1014.1 hPa South 6.4 km/h 9.7 km/h 82 % 0.0 mm
21:55 7.8 °C 4.9 °C 1014.1 hPa SSW 5.8 km/h 9.7 km/h 82 % 0.0 mm
22:00 7.8 °C 4.9 °C 1014.1 hPa SSW 5.0 km/h 9.3 km/h 82 % 0.0 mm
22:05 7.8 °C 4.9 °C 1014.1 hPa SW 4.7 km/h 9.3 km/h 82 % 0.0 mm
22:10 7.7 °C 5.1 °C 1014.1 hPa South 6.1 km/h 9.3 km/h 83 % 0.0 mm
22:15 7.7 °C 4.8 °C 1014.1 hPa SSW 9.0 km/h 13.7 km/h 82 % 0.0 mm
22:20 7.7 °C 4.8 °C 1014.1 hPa South 10.1 km/h 13.7 km/h 82 % 0.0 mm
22:21 7.7 °C 4.8 °C 1014.1 hPa SSW 8.7 km/h 12.2 km/h 82 % 0.0 mm
22:26 7.7 °C 4.8 °C 1013.1 hPa SSE 12.2 km/h 12.2 km/h 82 % 0.0 mm
22:31 7.7 °C 4.7 °C 1013.1 hPa SSW 10.5 km/h 15.1 km/h 81 % 0.0 mm
22:36 7.8 °C 4.6 °C 1013.1 hPa South 7.6 km/h 15.1 km/h 80 % 0.0 mm
22:41 7.8 °C 4.6 °C 1013.1 hPa SW 7.9 km/h 11.6 km/h 80 % 0.0 mm
22:46 7.7 °C 4.5 °C 1013.1 hPa SSW 11.9 km/h 11.9 km/h 80 % 0.0 mm
22:51 7.7 °C 4.7 °C 1013.1 hPa SSW 5.8 km/h 11.9 km/h 81 % 0.0 mm
22:56 7.7 °C 4.7 °C 1013.1 hPa South 7.9 km/h 13.0 km/h 81 % 0.0 mm
22:58 7.7 °C 4.7 °C 1013.1 hPa SSW 9.7 km/h 13.0 km/h 81 % 0.0 mm
23:03 7.7 °C 4.7 °C 1013.1 hPa SSW 9.0 km/h 14.8 km/h 81 % 0.0 mm
23:08 7.7 °C 4.7 °C 1013.1 hPa SSW 12.6 km/h 14.8 km/h 81 % 0.0 mm
23:13 7.7 °C 4.7 °C 1013.1 hPa WSW 11.9 km/h 14.0 km/h 81 % 0.0 mm
23:18 7.8 °C 4.8 °C 1013.1 hPa SSW 10.1 km/h 17.7 km/h 81 % 0.0 mm
23:20 7.8 °C 4.8 °C 1013.1 hPa SSW 10.1 km/h 17.7 km/h 81 % 0.0 mm
23:25 7.9 °C 4.7 °C 1013.1 hPa SSW 8.7 km/h 17.7 km/h 80 % 0.0 mm
23:30 8.1 °C 4.6 °C 1013.1 hPa SSW 19.5 km/h 19.5 km/h 79 % 0.0 mm
23:35 8.1 °C 4.5 °C 1013.1 hPa SSW 10.5 km/h 19.5 km/h 78 % 0.0 mm
23:40 8.2 °C 4.4 °C 1013.1 hPa SSW 12.6 km/h 22.4 km/h 77 % 0.0 mm
23:45 8.2 °C 4.4 °C 1013.1 hPa South 16.6 km/h 22.4 km/h 77 % 0.0 mm
23:50 8.3 °C 4.3 °C 1013.1 hPa SW 9.3 km/h 21.6 km/h 76 % 0.0 mm
23:55 8.3 °C 4.3 °C 1012.1 hPa SSW 14.8 km/h 19.1 km/h 76 % 0.0 mm
Le Gheer Warneton
Courtoisie de Weather Underground - 2.25 mb

Mise a jour : 17-12-17 07:20:13
Généré par Cumulus 1.9.4 (1099)